createdAt,value
2022-10-19T00:01:26.428Z,0.60
2022-10-19T00:04:31.681Z,0.60
2022-10-19T00:07:35.285Z,0.90
2022-10-19T00:10:43.291Z,0.52
2022-10-19T00:13:47.307Z,0.70
2022-10-19T00:16:54.444Z,0.57
2022-10-19T00:19:59.543Z,0.73
2022-10-19T00:23:05.211Z,0.38
2022-10-19T00:26:10.459Z,0.38
2022-10-19T00:29:15.014Z,0.40
2022-10-19T00:32:20.215Z,0.43
2022-10-19T00:41:37.488Z,0.73
2022-10-19T00:45:06.835Z,0.50
2022-10-19T00:48:16.654Z,0.38
2022-10-19T00:51:24.235Z,0.70
2022-10-19T00:54:27.489Z,0.50
2022-10-19T00:57:34.012Z,0.30
2022-10-19T01:00:38.017Z,0.82
2022-10-19T01:03:42.053Z,1.50
2022-10-19T01:06:46.696Z,0.80
2022-10-19T01:09:52.398Z,0.70
2022-10-19T01:13:16.223Z,0.57
2022-10-19T01:16:32.605Z,0.57
2022-10-19T01:20:31.821Z,0.40
2022-10-19T01:24:39.839Z,0.40
2022-10-19T01:28:20.220Z,0.43
2022-10-19T01:31:36.692Z,0.40
2022-10-19T01:34:49.807Z,0.50
2022-10-19T01:38:07.875Z,0.28
2022-10-19T01:41:19.615Z,0.30
2022-10-19T01:44:29.659Z,0.40
2022-10-19T01:47:44.550Z,0.38
2022-10-19T01:50:54.874Z,0.50
2022-10-19T01:54:07.782Z,0.20
2022-10-19T01:57:17.947Z,0.28
2022-10-19T02:00:25.988Z,0.30
2022-10-19T02:03:33.632Z,0.60
2022-10-19T02:06:37.790Z,0.52
2022-10-19T02:12:46.275Z,0.30
2022-10-19T02:15:58.084Z,0.40
2022-10-19T02:19:08.668Z,0.40
2022-10-19T02:22:15.646Z,0.47
2022-10-19T02:25:19.462Z,0.50
2022-10-19T02:31:34.132Z,0.40
2022-10-19T02:34:41.728Z,0.60
2022-10-19T02:37:45.901Z,0.43
2022-10-19T02:44:05.096Z,0.20
2022-10-19T02:47:15.719Z,0.30
2022-10-19T02:50:23.086Z,0.60
2022-10-19T02:53:26.044Z,0.20
2022-10-19T02:56:31.513Z,0.20
2022-10-19T02:59:36.987Z,0.38
2022-10-19T03:02:40.879Z,0.30
2022-10-19T03:05:46.047Z,0.40
2022-10-19T03:08:49.776Z,0.28
2022-10-19T03:11:54.034Z,0.30
2022-10-19T03:18:00.221Z,0.30
2022-10-19T03:21:10.416Z,0.20
2022-10-19T03:24:14.946Z,0.40
2022-10-19T03:27:18.468Z,0.57
2022-10-19T03:30:22.324Z,0.47
2022-10-19T03:36:41.550Z,0.30
2022-10-19T03:39:44.799Z,0.30
2022-10-19T03:42:48.177Z,0.30
2022-10-19T03:45:52.545Z,0.40
2022-10-19T03:48:55.964Z,0.40
2022-10-19T03:52:00.188Z,0.30
2022-10-19T03:55:03.314Z,0.32
2022-10-19T03:58:08.109Z,0.20
2022-10-19T04:01:15.852Z,0.40
2022-10-19T04:04:21.678Z,0.40
2022-10-19T04:07:27.091Z,0.40
2022-10-19T04:10:34.482Z,0.28
2022-10-19T04:13:39.597Z,0.20
2022-10-19T04:16:42.955Z,0.35
2022-10-19T04:19:46.436Z,0.30
2022-10-19T04:22:53.704Z,0.38
2022-10-19T04:26:06.542Z,0.40
2022-10-19T04:29:11.135Z,0.40
2022-10-19T04:32:15.109Z,0.30
2022-10-19T04:35:18.874Z,0.10
2022-10-19T04:38:23.235Z,0.25
2022-10-19T04:41:26.988Z,0.50
2022-10-19T04:44:30.994Z,0.32
2022-10-19T04:47:35.205Z,0.70
2022-10-19T04:50:38.825Z,0.40
2022-10-19T04:53:45.471Z,0.47
2022-10-19T04:56:49.965Z,0.70
2022-10-19T04:59:53.015Z,0.80
2022-10-19T05:02:55.915Z,0.50
2022-10-19T05:06:00.486Z,0.30
2022-10-19T05:09:06.292Z,0.20
2022-10-19T05:12:09.975Z,0.70
2022-10-19T05:15:13.922Z,0.70
2022-10-19T05:18:17.000Z,0.68
2022-10-19T05:21:23.314Z,0.70
2022-10-19T05:24:29.273Z,0.52
2022-10-19T05:27:33.030Z,0.80
2022-10-19T05:30:36.976Z,1.05
2022-10-19T05:33:42.282Z,0.98
2022-10-19T05:36:45.447Z,0.55
2022-10-19T05:39:49.846Z,0.70
2022-10-19T05:42:53.071Z,0.73
2022-10-19T05:45:57.867Z,0.30
2022-10-19T05:49:05.794Z,0.73
2022-10-19T05:52:09.769Z,1.00
2022-10-19T05:55:15.027Z,0.73
2022-10-19T05:58:19.115Z,1.02
2022-10-19T06:04:27.662Z,1.92
2022-10-19T06:07:31.479Z,2.20
2022-10-19T06:10:36.480Z,2.20
2022-10-19T06:13:43.350Z,1.85
2022-10-19T06:16:46.764Z,1.20
2022-10-19T06:19:49.866Z,1.53
2022-10-19T06:22:56.063Z,1.25
2022-10-19T06:26:03.497Z,0.88
2022-10-19T06:29:07.253Z,0.85
2022-10-19T06:32:10.262Z,0.70
2022-10-19T06:35:14.105Z,0.88
2022-10-19T06:38:17.901Z,0.90
2022-10-19T06:41:24.015Z,0.98
2022-10-19T06:44:27.283Z,0.60
2022-10-19T06:47:33.342Z,0.57
2022-10-19T06:50:36.809Z,0.60
2022-10-19T06:53:40.856Z,0.65
2022-10-19T06:56:45.338Z,0.75
2022-10-19T06:59:52.883Z,0.50
2022-10-19T07:02:59.645Z,0.52
2022-10-19T07:06:06.094Z,0.30
2022-10-19T07:09:09.020Z,0.75
2022-10-19T07:12:13.365Z,0.60
2022-10-19T07:15:16.855Z,0.57
2022-10-19T07:18:21.279Z,0.45
2022-10-19T07:21:24.755Z,0.30
2022-10-19T07:24:28.584Z,0.40
2022-10-19T07:27:40.626Z,0.70
2022-10-19T07:30:45.975Z,0.43
2022-10-19T07:33:55.626Z,0.55
2022-10-19T07:37:00.111Z,0.50
2022-10-19T07:40:04.556Z,0.82
2022-10-19T07:43:09.575Z,0.65
2022-10-19T07:46:17.546Z,0.43
2022-10-19T07:49:22.400Z,0.47
2022-10-19T07:52:27.057Z,0.80
2022-10-19T07:55:31.267Z,0.50
2022-10-19T08:01:43.884Z,0.50
2022-10-19T08:05:07.449Z,0.38
2022-10-19T08:08:11.282Z,0.43
2022-10-19T08:11:18.148Z,0.47
2022-10-19T08:14:24.319Z,0.20
2022-10-19T08:17:27.291Z,0.40
2022-10-19T08:20:32.943Z,0.20
2022-10-19T08:23:37.480Z,0.15
2022-10-19T08:26:42.898Z,0.25
2022-10-19T08:29:47.383Z,0.40
2022-10-19T08:32:50.312Z,0.22
2022-10-19T08:35:55.054Z,0.30
2022-10-19T08:38:59.866Z,0.20
2022-10-19T08:42:08.340Z,0.20
2022-10-19T08:45:42.680Z,0.30
2022-10-19T08:48:47.242Z,0.30
2022-10-19T08:51:57.093Z,0.40
2022-10-19T08:55:04.724Z,0.30
2022-10-19T08:58:32.787Z,0.30
2022-10-19T09:01:44.909Z,0.28
2022-10-19T09:04:55.909Z,0.20
2022-10-19T09:08:00.242Z,0.20
2022-10-19T09:11:03.361Z,0.30
2022-10-19T09:14:15.877Z,0.30
2022-10-19T09:17:21.858Z,0.20
2022-10-19T09:20:36.526Z,0.20
2022-10-19T09:23:44.738Z,0.45
2022-10-19T09:26:55.610Z,0.20
2022-10-19T09:30:03.715Z,0.30
2022-10-19T09:33:28.466Z,0.10
2022-10-19T09:39:55.611Z,0.10
2022-10-19T09:43:08.752Z,0.10
2022-10-19T09:46:20.438Z,0.22
2022-10-19T09:49:43.056Z,0.10
2022-10-19T09:52:48.904Z,0.20
2022-10-19T09:56:00.910Z,0.00
2022-10-19T09:59:04.519Z,0.20
2022-10-19T10:02:19.096Z,0.10
2022-10-19T10:05:35.298Z,0.15
2022-10-19T10:08:48.713Z,0.40
2022-10-19T10:15:08.595Z,0.30
2022-10-19T10:18:17.645Z,0.10
2022-10-19T10:21:27.565Z,0.20
2022-10-19T10:24:34.604Z,0.10
2022-10-19T10:27:41.523Z,0.20
2022-10-19T10:30:47.913Z,0.10
2022-10-19T10:34:10.764Z,0.17
2022-10-19T10:37:43.452Z,0.15
2022-10-19T10:40:55.371Z,0.10
2022-10-19T10:44:05.084Z,0.10
2022-10-19T10:47:19.828Z,0.10
2022-10-19T10:50:32.889Z,0.20
2022-10-19T10:53:45.429Z,0.15
2022-10-19T10:57:13.129Z,0.20
2022-10-19T11:00:20.844Z,0.17
2022-10-19T11:03:28.864Z,0.13
2022-10-19T11:06:39.595Z,0.20
2022-10-19T11:09:55.458Z,0.20
2022-10-19T11:13:09.538Z,0.20
2022-10-19T11:16:18.022Z,0.20
2022-10-19T11:19:27.265Z,0.10
2022-10-19T11:22:39.801Z,0.60
2022-10-19T11:26:08.523Z,0.30
2022-10-19T11:29:36.785Z,0.10
2022-10-19T11:33:03.783Z,0.00
2022-10-19T11:36:21.429Z,0.03
2022-10-19T11:39:44.100Z,0.15
2022-10-19T11:43:04.887Z,0.22
2022-10-19T11:46:18.243Z,0.20
2022-10-19T11:49:40.803Z,0.10
2022-10-19T11:52:57.599Z,0.10
2022-10-19T11:56:11.939Z,0.08
2022-10-19T11:59:33.218Z,0.00
2022-10-19T12:03:10.964Z,0.22
2022-10-19T12:06:29.404Z,0.20
2022-10-19T12:09:53.783Z,0.13
2022-10-19T12:13:04.659Z,0.28
2022-10-19T12:16:14.363Z,0.10
2022-10-19T12:19:23.471Z,0.15
2022-10-19T12:22:31.203Z,0.20
2022-10-19T12:25:39.734Z,0.13
2022-10-19T12:28:51.176Z,0.10
2022-10-19T12:31:59.593Z,0.20
2022-10-19T12:35:23.153Z,0.00
2022-10-19T12:38:44.023Z,0.10
2022-10-19T12:42:04.687Z,0.30
2022-10-19T12:45:30.287Z,0.00
2022-10-19T12:48:36.735Z,0.30
2022-10-19T12:51:48.879Z,0.10
2022-10-19T12:54:51.821Z,0.20
2022-10-19T12:58:05.588Z,0.20
2022-10-19T13:01:16.940Z,0.20
2022-10-19T13:04:27.768Z,0.10
2022-10-19T13:11:26.917Z,0.25
2022-10-19T13:14:50.130Z,0.50
2022-10-19T13:17:53.933Z,0.28
2022-10-19T13:21:03.614Z,0.10
2022-10-19T13:24:31.817Z,0.00
2022-10-19T13:27:40.318Z,0.05
2022-10-19T13:31:06.956Z,0.05
2022-10-19T13:35:14.300Z,0.30
2022-10-19T13:38:38.738Z,0.08
2022-10-19T13:42:01.917Z,0.13
2022-10-19T13:45:26.192Z,0.17
2022-10-19T13:54:14.843Z,0.08
2022-10-19T13:58:05.257Z,0.05
2022-10-19T14:01:46.295Z,0.25
2022-10-19T14:05:48.562Z,0.15
2022-10-19T14:09:50.742Z,0.00
2022-10-19T14:13:16.079Z,0.15
2022-10-19T14:16:49.405Z,0.10
2022-10-19T14:20:34.650Z,0.38
2022-10-19T14:23:58.390Z,0.13
2022-10-19T14:27:26.161Z,0.20
2022-10-19T14:30:58.170Z,0.20
2022-10-19T14:39:33.792Z,0.17
2022-10-19T14:43:00.289Z,0.20
2022-10-19T14:46:27.573Z,0.10
2022-10-19T15:00:20.975Z,0.20
2022-10-19T15:03:46.862Z,0.10
2022-10-19T15:06:50.715Z,0.20
2022-10-19T15:09:58.995Z,0.20
2022-10-19T15:13:07.388Z,0.20
2022-10-19T15:16:33.493Z,0.45
2022-10-19T15:19:42.455Z,0.70
2022-10-19T15:22:48.968Z,0.50
2022-10-19T15:26:00.936Z,0.38
2022-10-19T15:29:20.199Z,0.57
2022-10-19T15:32:31.892Z,0.80
2022-10-19T15:35:38.965Z,1.00
2022-10-19T15:38:42.387Z,1.40
2022-10-19T15:41:45.530Z,1.20
2022-10-19T15:44:48.709Z,0.65
2022-10-19T15:48:29.179Z,0.77
2022-10-19T15:51:43.430Z,0.43
2022-10-19T15:54:51.107Z,0.38
2022-10-19T15:58:00.127Z,0.80
2022-10-19T16:01:03.328Z,1.20
2022-10-19T16:04:08.444Z,0.80
2022-10-19T16:07:16.866Z,1.13
2022-10-19T16:10:24.575Z,1.52
2022-10-19T16:13:27.675Z,1.65
2022-10-19T16:16:33.942Z,2.20
2022-10-19T16:19:38.438Z,1.15
2022-10-19T16:22:41.565Z,1.50
2022-10-19T16:25:44.806Z,1.75
2022-10-19T16:28:49.250Z,1.90
2022-10-19T16:31:54.366Z,1.70
2022-10-19T16:34:58.810Z,1.60
2022-10-19T16:38:01.926Z,1.08
2022-10-19T16:41:08.238Z,1.20
2022-10-19T16:44:13.443Z,1.25
2022-10-19T16:47:17.014Z,1.67
2022-10-19T16:50:22.161Z,2.03
2022-10-19T16:53:25.429Z,1.20
2022-10-19T16:56:32.094Z,1.90
2022-10-19T16:59:35.331Z,2.00
2022-10-19T17:02:41.939Z,2.30
2022-10-19T17:05:49.177Z,3.10
2022-10-19T17:12:20.073Z,3.92
2022-10-19T17:15:42.151Z,3.60
2022-10-19T17:18:47.028Z,4.20
2022-10-19T17:21:51.548Z,4.22
2022-10-19T17:24:55.506Z,4.10
2022-10-19T17:27:58.626Z,3.92
2022-10-19T17:31:06.277Z,3.25
2022-10-19T17:34:10.531Z,3.95
2022-10-19T17:37:15.007Z,3.60
2022-10-19T17:40:18.398Z,3.88
2022-10-19T17:43:21.609Z,4.47
2022-10-19T17:46:28.398Z,4.20
2022-10-19T17:49:31.611Z,3.50
2022-10-19T17:52:39.362Z,5.00
2022-10-19T17:55:42.516Z,6.63
2022-10-19T17:58:46.325Z,5.97
2022-10-19T18:01:49.610Z,4.80
2022-10-19T18:04:52.920Z,6.00
2022-10-19T18:07:58.379Z,6.47
2022-10-19T18:11:04.344Z,6.55
2022-10-19T18:14:09.896Z,6.05
2022-10-19T18:22:16.484Z,4.40
2022-10-19T18:25:25.853Z,4.07
2022-10-19T18:28:40.517Z,4.78
2022-10-19T18:31:43.797Z,4.43
2022-10-19T18:34:46.980Z,5.20
2022-10-19T18:37:50.567Z,5.32
2022-10-19T18:40:56.274Z,4.03
2022-10-19T18:44:03.560Z,4.28
2022-10-19T18:47:06.637Z,4.85
2022-10-19T18:50:12.947Z,4.65
2022-10-19T18:53:16.345Z,2.83
2022-10-19T18:56:24.063Z,4.60
2022-10-19T19:02:42.366Z,2.30
2022-10-19T19:05:49.498Z,2.40
2022-10-19T19:08:55.105Z,2.60
2022-10-19T19:12:01.189Z,2.35
2022-10-19T19:15:08.087Z,2.30
2022-10-19T19:18:11.271Z,2.42
2022-10-19T19:21:18.704Z,2.30
2022-10-19T19:24:27.954Z,2.15
2022-10-19T19:27:32.520Z,2.95
2022-10-19T19:30:35.795Z,3.15
2022-10-19T19:33:38.983Z,3.30
2022-10-19T19:36:47.289Z,3.08
2022-10-19T19:39:51.034Z,3.92
2022-10-19T19:42:55.815Z,5.10
2022-10-19T19:46:04.562Z,5.53
2022-10-19T19:49:11.226Z,5.38
2022-10-19T19:52:14.554Z,6.67
2022-10-19T19:55:18.067Z,5.20
2022-10-19T19:58:22.996Z,5.10
2022-10-19T20:01:27.275Z,4.80
2022-10-19T20:04:30.413Z,5.57
2022-10-19T20:07:34.007Z,6.65
2022-10-19T20:10:40.599Z,6.03
2022-10-19T20:13:46.113Z,5.47
2022-10-19T20:16:49.384Z,5.57
2022-10-19T20:19:52.616Z,4.67
2022-10-19T20:22:55.729Z,4.33
2022-10-19T20:25:59.280Z,4.13
2022-10-19T20:29:05.751Z,3.63
2022-10-19T20:32:08.782Z,3.50
2022-10-19T20:35:13.535Z,3.35
2022-10-19T20:38:16.630Z,2.83
2022-10-19T20:41:23.708Z,2.90
2022-10-19T20:44:28.335Z,2.95
2022-10-19T20:47:32.486Z,3.72
2022-10-19T20:50:36.153Z,4.13
2022-10-19T20:53:39.832Z,3.40
2022-10-19T20:56:43.319Z,3.08
2022-10-19T20:59:48.006Z,3.63
2022-10-19T21:02:53.780Z,2.50
2022-10-19T21:05:56.939Z,3.13
2022-10-19T21:09:00.814Z,2.75
2022-10-19T21:12:03.975Z,3.63
2022-10-19T21:15:09.898Z,2.97
2022-10-19T21:18:13.516Z,2.75
2022-10-19T21:21:21.666Z,3.08
2022-10-19T21:24:28.522Z,3.13
2022-10-19T21:27:31.569Z,3.55
2022-10-19T21:30:38.733Z,3.88
2022-10-19T21:33:41.871Z,3.80
2022-10-19T21:36:44.884Z,4.70
2022-10-19T21:39:48.048Z,5.07
2022-10-19T21:42:51.152Z,5.03
2022-10-19T21:45:56.281Z,4.60
2022-10-19T21:49:00.302Z,4.68
2022-10-19T21:52:03.512Z,4.95
2022-10-19T21:55:08.247Z,4.10
2022-10-19T21:58:11.306Z,4.80
2022-10-19T22:01:16.502Z,4.45
2022-10-19T22:04:20.451Z,4.53
2022-10-19T22:07:23.952Z,4.53
2022-10-19T22:10:27.313Z,3.90
2022-10-19T22:13:31.006Z,4.57
2022-10-19T22:16:36.796Z,4.10
2022-10-19T22:19:40.278Z,4.03
2022-10-19T22:22:43.535Z,4.07
2022-10-19T22:25:47.733Z,4.67
2022-10-19T22:31:55.837Z,3.83
2022-10-19T22:34:59.072Z,4.57
2022-10-19T22:38:02.551Z,4.50
2022-10-19T22:41:05.650Z,4.95
2022-10-19T22:44:08.851Z,5.53
2022-10-19T22:47:13.533Z,5.97
2022-10-19T22:50:16.664Z,5.78
2022-10-19T22:53:19.757Z,5.57
2022-10-19T22:56:23.171Z,6.00
2022-10-19T22:59:26.319Z,5.25
2022-10-19T23:02:31.983Z,5.32
2022-10-19T23:05:35.368Z,5.45
2022-10-19T23:08:39.029Z,5.90
2022-10-19T23:11:42.110Z,6.05
2022-10-19T23:14:45.371Z,5.60
2022-10-19T23:17:49.876Z,6.07
2022-10-19T23:20:57.579Z,6.55
2022-10-19T23:24:00.682Z,5.88
2022-10-19T23:27:03.880Z,5.80
2022-10-19T23:30:08.287Z,4.85
2022-10-19T23:33:12.680Z,5.25
2022-10-19T23:36:19.999Z,4.63
2022-10-19T23:39:23.321Z,3.78
2022-10-19T23:42:26.672Z,4.87
2022-10-19T23:45:30.152Z,3.88
2022-10-19T23:48:35.360Z,4.00
2022-10-19T23:51:38.973Z,4.13
2022-10-19T23:54:41.979Z,4.20
2022-10-19T23:57:44.972Z,4.28
